Dades de l'estació automàtica Sant Martí Sarroca
Resum diari
21:30 TU| Temperatura mitjana | 16.3 °C | |
|---|---|---|
| Temperatura màxima | 21.3 °C | 10:17 TU |
| Temperatura mínima | 10.5 °C | 21:45 TU |
| Humitat relativa mitjana | 79% | |
| Precipitació acumulada | 4.6 mm | |
| Ratxa màxima del vent (2 m) | 25.2 km/h - 136º | 11:53 TU |
| Irradiació solar global | 13.7 MJ/m2 | |
El tram horari està expressat en Temps Universal (TU). Cal sumar una hora en horari d'hivern i dues en horari d'estiu per passar a l'hora oficial.
Sant Martí Sarroca
| Municipi | Sant Martí Sarroca |
|---|---|
| Comarca | Alt Penedès |
| Altitud | 257 m |
| Data alta | 24.05.1997 |
| Estat actual | Operativa |
| Període TU |
TM °C |
TX °C |
TN °C |
HRM % |
PPT mm |
VVM (2 m) km/h |
DVM (2 m) graus |
VVX (2 m) km/h |
RS W/m2 |
|---|---|---|---|---|---|---|---|---|---|
| 00:00 - 00:30 | 14.1 | 14.1 | 14.0 | 91 | 0.0 | 2.2 | 16 | 6.8 | 0 |
| 00:30 - 01:00 | 14.1 | 14.1 | 14.1 | 91 | 0.0 | 1.8 | 348 | 6.1 | 0 |
| 01:00 - 01:30 | 14.2 | 14.3 | 14.1 | 90 | 0.0 | 1.8 | 327 | 5.8 | 0 |
| 01:30 - 02:00 | 14.3 | 14.3 | 14.3 | 89 | 0.0 | 1.1 | 3 | 4.7 | 0 |
| 02:00 - 02:30 | 14.2 | 14.3 | 14.0 | 89 | 0.0 | 0.4 | 18 | 1.8 | 0 |
| 02:30 - 03:00 | 14.1 | 14.3 | 14.0 | 90 | 0.0 | 0.7 | 346 | 2.5 | 0 |
| 03:00 - 03:30 | 14.3 | 14.4 | 14.3 | 88 | 0.0 | 1.1 | 310 | 4.7 | 0 |
| 03:30 - 04:00 | 14.5 | 14.5 | 14.4 | 88 | 0.0 | 1.4 | 309 | 5.8 | 0 |
| 04:00 - 04:30 | 14.4 | 14.5 | 14.4 | 88 | 0.0 | 0.7 | 350 | 3.2 | 0 |
| 04:30 - 05:00 | 14.4 | 14.4 | 14.3 | 88 | 0.0 | 0.7 | 350 | 2.9 | 1 |
| 05:00 - 05:30 | 14.4 | 14.6 | 14.3 | 88 | 0.0 | 0.4 | 2 | 1.8 | 24 |
| 05:30 - 06:00 | 14.8 | 15.6 | 14.4 | 86 | 0.0 | 0.7 | 337 | 2.9 | 100 |
| 06:00 - 06:30 | 15.8 | 16.4 | 15.5 | 81 | 0.0 | 2.2 | 13 | 5.0 | 220 |
| 06:30 - 07:00 | 16.7 | 17.1 | 16.3 | 77 | 0.0 | 2.2 | 11 | 7.6 | 309 |
| 07:00 - 07:30 | 17.0 | 17.2 | 16.7 | 76 | 0.0 | 3.6 | 19 | 8.6 | 290 |
| 07:30 - 08:00 | 17.2 | 17.4 | 16.8 | 75 | 0.0 | 3.2 | 14 | 7.9 | 246 |
| 08:00 - 08:30 | 17.6 | 18.4 | 17.3 | 70 | 0.0 | 2.2 | 54 | 4.7 | 290 |
| 08:30 - 09:00 | 19.2 | 19.9 | 18.5 | 65 | 0.0 | 2.9 | 39 | 8.3 | 586 |
| 09:00 - 09:30 | 20.5 | 21.0 | 19.8 | 62 | 0.0 | 4.3 | 180 | 13.7 | 727 |
| 09:30 - 10:00 | 20.0 | 21.0 | 19.4 | 65 | 0.0 | 4.7 | 154 | 10.8 | 370 |
| 10:00 - 10:30 | 20.7 | 21.3 | 19.9 | 63 | 0.0 | 4.7 | 180 | 14.8 | 485 |
| 10:30 - 11:00 | 19.7 | 20.3 | 18.7 | 70 | 0.0 | 5.0 | 203 | 14.8 | 249 |
| 11:00 - 11:30 | 19.2 | 20.3 | 18.7 | 74 | 0.0 | 4.3 | 198 | 16.2 | 445 |
| 11:30 - 12:00 | 20.4 | 20.7 | 19.7 | 70 | 0.0 | 6.5 | 197 | 25.2 | 634 |
| 12:00 - 12:30 | 19.1 | 20.0 | 18.3 | 73 | 0.0 | 5.8 | 196 | 19.8 | 374 |
| 12:30 - 13:00 | 18.5 | 18.9 | 17.4 | 72 | 0.0 | 5.8 | 199 | 16.6 | 335 |
| 13:00 - 13:30 | 16.9 | 17.3 | 16.7 | 75 | 0.0 | 5.0 | 198 | 15.8 | 127 |
| 13:30 - 14:00 | 17.0 | 17.3 | 16.7 | 75 | 0.0 | 5.0 | 222 | 14.0 | 217 |
| 14:00 - 14:30 | 17.5 | 17.9 | 17.2 | 71 | 0.0 | 3.6 | 194 | 8.3 | 233 |
| 14:30 - 15:00 | 17.9 | 18.6 | 17.5 | 69 | 0.0 | 3.6 | 151 | 11.5 | 290 |
| 15:00 - 15:30 | 18.5 | 19.2 | 18.2 | 66 | 0.0 | 3.6 | 185 | 10.1 | 345 |
| 15:30 - 16:00 | 18.7 | 19.1 | 18.4 | 67 | 0.0 | 4.3 | 177 | 11.9 | 352 |
| 16:00 - 16:30 | 18.3 | 19.0 | 17.7 | 69 | 0.0 | 3.6 | 214 | 7.9 | 162 |
| 16:30 - 17:00 | 17.6 | 17.7 | 17.5 | 71 | 0.0 | 3.2 | 219 | 8.3 | 98 |
| 17:00 - 17:30 | 17.6 | 17.7 | 17.5 | 73 | 0.0 | 4.0 | 216 | 10.8 | 69 |
| 17:30 - 18:00 | 17.2 | 17.5 | 16.7 | 75 | 0.0 | 4.0 | 221 | 11.5 | 52 |
| 18:00 - 18:30 | 16.4 | 16.7 | 16.1 | 81 | 0.0 | 3.2 | 219 | 10.1 | 4 |
| 18:30 - 19:00 | 16.0 | 16.1 | 16.0 | 83 | 0.0 | 2.5 | 215 | 10.1 | 0 |
| 19:00 - 19:30 | 14.4 | 16.0 | 12.9 | 89 | 3.7 | 6.1 | 275 | 23.4 | 0 |
| 19:30 - 20:00 | 12.6 | 12.9 | 12.5 | 93 | 0.9 | 4.7 | 307 | 12.2 | 0 |
| 20:00 - 20:30 | 12.7 | 12.9 | 12.5 | 92 | 0.0 | 1.8 | 22 | 12.2 | 0 |
| 20:30 - 21:00 | 12.2 | 12.5 | 11.7 | 96 | 0.0 | 1.8 | 193 | 4.3 | 0 |
| 21:00 - 21:30 | 11.3 | 11.7 | 10.7 | 96 | 0.0 | 1.8 | 211 | 6.5 | 0 |
| 21:30 - 22:00 | 10.6 | 10.6 | 10.5 | 97 | 0.0 | 2.9 | 230 | 9.0 | 0 |
| 22:00 - 22:30 | (s/d) | (s/d) | (s/d) | (s/d) | (s/d) | (s/d) | (s/d) | (s/d) | (s/d) |
Les dades en taronja només han passat un control de qualitat automàtic. Resta pendent la seva validació definitiva.